Relevés horaires Chievres (Belgique)


Relevés horaires à Chievres - Mercredi 25 Mai 2016
Heure UTC1 Température [°C] Vent [km/h] Hum. [%] Pres.4 [hPa] Visi. [Km] Nébu. [octa] Préc.5 [mm] Cond.
2m. Res. Ros. Dir.2 Vit. Moy. Raf.3
23:00 10.6 10.6 9.5 NNE 3.7 5.6 7.4 93 1016.2(0.4/3h) 6 -- -- --
22:00 10.8 10.8 9.6 N 3.7 7.4 7.4 92 1016.2(0.8/3h) 6 -- -- --
21:00 11.6 11.4 9.3 N 5.6 0.0 0.0 86 1016(0.8/3h) 13 -- -- --
20:00 13.1 13.1 8.8 NNO 1.9 3.7 3.7 75 1015.8(0.6/3h) 20 -- -- --
19:00 15.1 15.1 8.4 N 3.7 3.7 5.6 64 1015.3(0.3/3h) 16 -- -- --
18:00 16.2 16.2 7.6 NNO 1.9 0.0 0.0 57 1015.1(-0.1/3h) 20 -- 0/0h
--
17:00 16.4 16.4 7.2 NNO 3.7 5.6 9.3 54 1015(-0.3/3h) 19 -- -- --
16:00 16.5 16.5 7.7 N 3.7 5.6 9.3 56 1015(-0.4/3h) 20 -- -- --
15:00 16.0 16.0 5.8 NNO 1.9 0.0 0.0 51 1015.2(-0.3/3h) 17 -- -- --
14:00 15.9 15.9 7.1 N 3.7 5.6 7.4 56 1015.2(-0.6/3h) 20 -- -- --
13:00 14.7 14.7 6.5 NO 3.7 3.7 9.3 58 1015.3(-0.6/3h) 20 -- -- --
12:00 14.7 14.7 6.2 ONO 3.7 0.0 0.0 57 1015.6(-0.7/3h) 18 -- 0/0h
--
11:00 13.9 13.9 7.3 NNO 1.9 3.7 5.6 64 1015.8(-0.5/3h) 20 -- -- --
10:00 13.3 13.3 6.4 NNO 1.9 1.9 3.7 63 1016.1(-0.5/3h) 15 -- -- --
09:00 12.6 12.6 5.3 NNO 1.9 0.0 0.0 61 1016.5(-0.2/3h) 19 -- -- --
08:00 10.3 10.3 6.2 NNO 1.9 1.9 1.9 76 1016.6(0.0/3h) 18 -- -- --
07:00 9.3 9.3 6.9 NNO 1.9 0.0 1.9 85 1016.7(0.1/3h) 19 -- -- --
06:00 8.3 8.3 7.3 NNO 1.9 0.0 0.0 93 1016.7(0.1/3h) 15 -- 0/0h
--
05:00 6.8 6.8 6.4 NNO 1.9 1.9 1.9 97 1016.7(0.0/3h) 14 -- -- --
04:00 6.1 6.1 5.7 NNO 1.9 0.0 0.0 97 1016.7(-0.7/3h) 14 -- -- --
03:00 6.2 6.2 5.3 NNO 1.9 0.0 0.0 94 1016.7(-0.9/3h) 15 -- -- --
02:00 6.4 6.4 5.3 NNO 1.9 1.9 3.7 93 1016.8(-1.1/3h) 16 -- -- --
01:00 7.5 7.5 6.3 NNO 1.9 1.9 1.9 92 1017.2(-0.7/3h) 19 -- -- --
00:00 7.9 7.9 6.6 NNO 1.9 0.0 0.0 91 1017.6(-0.3/3h) 19 -- 0/0h
--

1 Coordinated Universal Time. Actuellement il est 15:00 locale et 13:00 UTC.

2 Le vent souffle depuis la direction indiquée vers la direction oposée.

3 Les rafales max. sont disponible 40 min après l'heure du relevé.

4 Pour les stations d'altitude (plus de 600m) le géopotentiel du niveau le plus proche de la pression obligatoire est indiqué.

5 Les stations disposant d'un diffuseur peuvent indiquer "trace". Cela signifie que des précipitations ont touchés le sol mais que la quantité est inférieure à 0.1 mm.

Récapitulatif de la journée
Température [°C] Vent [km/h] Ensoleillement4 [h] Precipitations totale5 [mm] Pression [Hpa]
Min1 Max.2 Moy.3 Max. Min Max.
5.7 17.5 2.3 9.3 0 h 0 min 0 1015.0 1017.6

1 Température minimale relevée entre 18:00 UTC la veille et 18:00 UTC le jour donné.

2 Température maximale relevée entre 06:00 UTC le jour donné et 06:00 UTC le lendemain.

3 Vent moyen de la journée basé sur les relevés horaires.

4 Ensoleillement en heures relevé entre 06:00 UTC la veille et 06:00 UTC le jour donné.

5 Précipitations totales tombées entre 06:00 UTC la jour donné et 06:00 UTC le lendemain.

Graphiques horaires